»·PEaware :: N137AL KBFL-KMHV

N137AL :: KBFL-KMHV

FLIGHT INFORMATION

Flight Status: Arrived
Operator: Privately registered:
United States
More flights under this callsign
Pilot: Aaron K. (32509)
Aircraft: CESSNA 172 SKYHAWK
(C172)
More flights by this aircraft type
Origin: KBFL Meadows
United States
Destination: KMHV Mojave
United States
More flights between these airports :: More routes between these airports
Route:
File this flight plan on PilotEdge
Remarks:
Altitude:
(Current/Filed)
5,500ft
Speed:
(Current/Filed)
110kts
Departed: 11-Jan-21 06:01 PM
Arrived: 11-Jan-21 06:31 PM
Distance/Time
Traveled:
50nm/0:30
Distance/Time
To Go:
Arrived

Flight Plot

Page will automatically refresh every two minutes.


Map Options




Map Legend


Flown Route
Filed Route
Departure Airport
Arrival Airport
Navaid (VOR, NDB)
Fix

Horizontal Profiles

Position Reports

Time Latitude Longitude Heading Altitude Ground
Speed
11-Jan-21 17:53 35.429659 -119.046616 136 495ft 0kts
11-Jan-21 17:54 35.429659 -119.046616 136 495ft 0kts
11-Jan-21 17:55 35.429579 -119.046644 205 494ft 6kts
11-Jan-21 17:56 35.427920 -119.046730 130 487ft 15kts
11-Jan-21 17:57 35.425834 -119.045015 224 479ft 1kts
11-Jan-21 17:58 35.425766 -119.045090 222 479ft 0kts
11-Jan-21 17:59 35.425515 -119.045388 228 477ft 14kts
11-Jan-21 18:00 35.435212 -119.059759 304 1077ft 59kts
11-Jan-21 18:01 35.447809 -119.075428 311 1834ft 63kts
11-Jan-21 18:03 35.449508 -119.061228 115 2416ft 93kts
11-Jan-21 18:04 35.437478 -119.029917 116 2931ft 107kts
11-Jan-21 18:05 35.423586 -118.997034 117 3512ft 104kts
11-Jan-21 18:06 35.410644 -118.966661 117 4120ft 102kts
11-Jan-21 18:07 35.396607 -118.933820 117 4532ft 112kts
11-Jan-21 18:08 35.381888 -118.899357 117 4937ft 115kts
11-Jan-21 18:09 35.367048 -118.864599 116 5339ft 114kts
11-Jan-21 18:10 35.351579 -118.828416 116 5507ft 128kts
11-Jan-21 18:11 35.334508 -118.788622 116 5515ft 133kts
11-Jan-21 18:12 35.317168 -118.748163 116 5520ft 134kts
11-Jan-21 18:13 35.298380 -118.708594 126 5523ft 134kts
11-Jan-21 18:14 35.276281 -118.671595 126 5528ft 134kts
11-Jan-21 18:15 35.253990 -118.634737 126 5534ft 134kts
11-Jan-21 18:16 35.231704 -118.598012 126 5540ft 134kts
11-Jan-21 18:16 35.213103 -118.567377 126 5546ft 134kts
11-Jan-21 18:18 35.187040 -118.524492 125 5554ft 134kts
11-Jan-21 18:19 35.164697 -118.487769 124 5521ft 135kts
11-Jan-21 18:19 35.146232 -118.457453 124 5525ft 132kts
11-Jan-21 18:20 35.131899 -118.417047 105 5529ft 129kts
11-Jan-21 18:21 35.120436 -118.375376 106 5533ft 128kts
11-Jan-21 18:23 35.107210 -118.327064 107 5539ft 128kts
11-Jan-21 18:23 35.097806 -118.292762 107 5540ft 128kts
11-Jan-21 18:24 35.085424 -118.247657 107 4808ft 152kts
11-Jan-21 18:25 35.070134 -118.199773 115 3968ft 140kts
11-Jan-21 18:26 35.048705 -118.164780 134 3557ft 118kts
11-Jan-21 18:27 35.029946 -118.147791 147 3301ft 70kts
11-Jan-21 18:28 35.030719 -118.125894 41 3161ft 65kts
11-Jan-21 18:29 35.045858 -118.132372 315 2753ft 68kts
11-Jan-21 18:30 35.048484 -118.136757 233 2698ft 0kts
11-Jan-21 18:31 35.049110 -118.138577 313 2703ft 16kts
11-Jan-21 18:32 35.051985 -118.142098 318 2715ft 9kts
11-Jan-21 18:33 35.052089 -118.144900 281 2722ft 9kts
11-Jan-21 18:34 35.052419 -118.145662 316 2725ft 0kts
11-Jan-21 18:35 35.052419 -118.145662 316 2725ft 0kts
11-Jan-21 18:36 35.052419 -118.145662 316 2725ft 0kts
11-Jan-21 18:37 35.052419 -118.145662 316 2725ft 0kts
11-Jan-21 18:38 35.052419 -118.145662 316 2725ft 0kts
11-Jan-21 18:39 35.052419 -118.145662 316 2725ft 0kts
11-Jan-21 18:40 35.052419 -118.145662 316 2725ft 0kts
11-Jan-21 18:41 35.052419 -118.145662 316 2725ft 0kts
11-Jan-21 18:42 35.052419 -118.145662 316 2725ft 0kts
11-Jan-21 18:43 35.052187 -118.145335 124 2723ft 0kts
11-Jan-21 18:44 35.052187 -118.145335 124 2723ft 0kts
11-Jan-21 18:45 35.052187 -118.145335 124 2723ft 0kts

Navigation Log

Ident Type
Flight plan parsing failed, navigation log unavailable